createdAt,value
2018-06-18T00:01:50.911Z,19.00
2018-06-18T00:04:21.667Z,18.90
2018-06-18T00:06:52.287Z,18.90
2018-06-18T00:09:22.819Z,18.90
2018-06-18T00:11:53.372Z,18.80
2018-06-18T00:14:24.171Z,18.80
2018-06-18T00:16:54.749Z,18.80
2018-06-18T00:19:25.240Z,18.80
2018-06-18T00:21:55.640Z,18.80
2018-06-18T00:24:26.269Z,18.80
2018-06-18T00:26:56.717Z,18.80
2018-06-18T00:29:27.240Z,18.80
2018-06-18T00:31:57.657Z,18.80
2018-06-18T00:34:28.028Z,18.80
2018-06-18T00:36:59.725Z,18.80
2018-06-18T00:39:30.243Z,18.80
2018-06-18T00:42:00.717Z,18.80
2018-06-18T00:44:31.206Z,18.80
2018-06-18T00:47:02.050Z,18.90
2018-06-18T00:49:32.784Z,18.90
2018-06-18T00:52:03.352Z,18.90
2018-06-18T00:54:33.736Z,18.90
2018-06-18T00:57:04.225Z,18.90
2018-06-18T00:59:34.767Z,18.90
2018-06-18T01:02:05.252Z,18.90
2018-06-18T01:04:35.998Z,18.90
2018-06-18T01:07:06.584Z,19.00
2018-06-18T01:09:37.064Z,19.00
2018-06-18T01:12:07.748Z,19.00
2018-06-18T01:14:38.316Z,19.00
2018-06-18T01:17:08.837Z,18.90
2018-06-18T01:19:39.864Z,18.90
2018-06-18T01:22:10.281Z,18.80
2018-06-18T01:24:52.337Z,18.80
2018-06-18T01:27:22.943Z,18.70
2018-06-18T01:29:53.397Z,18.70
2018-06-18T01:32:23.916Z,18.60
2018-06-18T01:34:54.417Z,18.50
2018-06-18T01:37:24.884Z,18.50
2018-06-18T01:39:55.557Z,18.40
2018-06-18T01:42:26.125Z,18.40
2018-06-18T01:47:26.523Z,18.30
2018-06-18T01:49:56.834Z,18.30
2018-06-18T01:52:27.475Z,18.30
2018-06-18T01:54:57.979Z,18.30
2018-06-18T01:57:28.399Z,18.30
2018-06-18T01:59:59.068Z,18.20
2018-06-18T02:02:29.599Z,18.20
2018-06-18T02:05:00.235Z,18.20
2018-06-18T02:07:30.874Z,18.20
2018-06-18T02:10:01.626Z,18.10
2018-06-18T02:12:32.224Z,18.10
2018-06-18T02:15:02.642Z,18.10
2018-06-18T02:17:33.323Z,18.10
2018-06-18T02:20:03.924Z,18.10
2018-06-18T02:22:34.646Z,18.00
2018-06-18T02:25:05.259Z,18.00
2018-06-18T02:27:40.946Z,18.00
2018-06-18T02:30:16.492Z,18.00
2018-06-18T02:32:52.114Z,17.90
2018-06-18T02:35:27.906Z,17.90
2018-06-18T02:38:03.528Z,17.90
2018-06-18T02:40:39.112Z,17.90
2018-06-18T02:43:09.897Z,18.00
2018-06-18T02:45:40.227Z,17.90
2018-06-18T02:48:10.961Z,17.90
2018-06-18T02:50:41.725Z,17.90
2018-06-18T02:53:12.341Z,17.90
2018-06-18T02:55:45.227Z,17.90
2018-06-18T02:58:15.732Z,17.90
2018-06-18T03:00:46.178Z,17.90
2018-06-18T03:03:16.748Z,17.90
2018-06-18T03:05:47.371Z,17.90
2018-06-18T03:08:18.181Z,17.90
2018-06-18T03:10:48.887Z,18.00
2018-06-18T03:13:19.531Z,18.00
2018-06-18T03:15:50.180Z,18.00
2018-06-18T03:18:25.815Z,18.10
2018-06-18T03:21:01.496Z,18.20
2018-06-18T03:23:36.859Z,18.20
2018-06-18T03:26:12.431Z,18.20
2018-06-18T03:28:48.352Z,18.30
2018-06-18T03:31:18.782Z,18.30
2018-06-18T03:33:49.158Z,18.40
2018-06-18T03:38:51.561Z,18.50
2018-06-18T03:41:22.220Z,18.50
2018-06-18T03:43:57.996Z,18.60
2018-06-18T03:46:28.596Z,18.60
2018-06-18T03:48:59.121Z,18.60
2018-06-18T03:51:29.865Z,18.60
2018-06-18T03:54:00.349Z,18.70
2018-06-18T03:56:30.774Z,18.70
2018-06-18T03:59:01.185Z,18.80
2018-06-18T04:02:14.216Z,18.80
2018-06-18T04:04:53.077Z,18.90
2018-06-18T04:10:04.153Z,18.90
2018-06-18T04:12:34.592Z,19.00
2018-06-18T04:15:05.051Z,19.00
2018-06-18T04:17:35.580Z,19.10
2018-06-18T04:20:06.152Z,19.10
2018-06-18T04:22:36.656Z,19.20
2018-06-18T04:25:07.201Z,19.30
2018-06-18T04:27:37.686Z,19.40
2018-06-18T04:30:08.332Z,19.50
2018-06-18T04:32:38.699Z,19.60
2018-06-18T04:35:10.587Z,19.70
2018-06-18T04:37:41.591Z,19.80
2018-06-18T04:40:14.665Z,19.90
2018-06-18T04:42:50.401Z,20.10
2018-06-18T04:45:25.901Z,20.20
2018-06-18T04:48:02.616Z,20.30
2018-06-18T04:50:37.973Z,20.40
2018-06-18T04:55:38.468Z,20.60
2018-06-18T04:58:10.024Z,20.70
2018-06-18T05:13:40.949Z,20.90
2018-06-18T05:16:11.442Z,21.20
2018-06-18T05:18:41.862Z,21.20
2018-06-18T05:21:12.225Z,21.40
2018-06-18T05:23:42.665Z,21.40
2018-06-18T05:26:13.077Z,21.40
2018-06-18T05:28:43.852Z,21.40
2018-06-18T05:31:14.287Z,21.40
2018-06-18T05:33:44.880Z,21.40
2018-06-18T05:36:15.376Z,21.50
2018-06-18T05:38:45.956Z,21.60
2018-06-18T05:41:16.669Z,21.80
2018-06-18T05:43:47.251Z,22.10
2018-06-18T05:46:18.058Z,22.30
2018-06-18T05:48:48.619Z,22.50
2018-06-18T05:51:20.175Z,22.50
2018-06-18T05:53:51.764Z,22.70
2018-06-18T05:56:22.320Z,22.80
2018-06-18T05:58:52.808Z,22.90
2018-06-18T06:01:23.281Z,23.10
2018-06-18T06:03:53.889Z,23.20
2018-06-18T06:06:24.263Z,23.50
2018-06-18T06:08:54.774Z,23.50
2018-06-18T06:11:25.417Z,23.40
2018-06-18T06:13:56.150Z,23.50
2018-06-18T06:16:26.658Z,23.70
2018-06-18T06:18:57.407Z,23.80
2018-06-18T06:21:27.768Z,23.90
2018-06-18T06:23:58.428Z,24.00
2018-06-18T06:26:28.781Z,24.10
2018-06-18T06:28:59.356Z,24.40
2018-06-18T06:31:29.785Z,24.40
2018-06-18T06:34:00.340Z,24.40
2018-06-18T06:36:31.118Z,24.60
2018-06-18T06:39:01.599Z,24.40
2018-06-18T06:41:32.717Z,24.70
2018-06-18T06:44:03.197Z,24.90
2018-06-18T06:46:33.632Z,25.10
2018-06-18T06:49:04.176Z,25.20
2018-06-18T06:51:34.747Z,25.40
2018-06-18T06:54:05.364Z,25.50
2018-06-18T06:56:35.816Z,25.60
2018-06-18T06:59:06.652Z,25.80
2018-06-18T07:01:37.089Z,26.00
2018-06-18T07:04:08.392Z,25.90
2018-06-18T07:06:38.939Z,26.10
2018-06-18T07:09:11.457Z,26.00
2018-06-18T07:11:42.454Z,26.40
2018-06-18T07:14:13.017Z,26.30
2018-06-18T07:16:43.524Z,26.00
2018-06-18T07:19:14.098Z,26.40
2018-06-18T07:21:44.515Z,26.40
2018-06-18T07:24:15.003Z,26.30
2018-06-18T07:26:45.446Z,26.00
2018-06-18T07:29:15.928Z,25.90
2018-06-18T07:31:46.361Z,25.80
2018-06-18T07:34:16.857Z,25.80
2018-06-18T07:36:47.746Z,25.80
2018-06-18T07:41:47.988Z,26.10
2018-06-18T07:44:18.713Z,26.10
2018-06-18T07:46:49.415Z,26.20
2018-06-18T07:49:20.105Z,26.00
2018-06-18T07:51:50.780Z,26.10
2018-06-18T07:54:21.203Z,26.40
2018-06-18T07:56:52.547Z,26.30
2018-06-18T07:59:23.197Z,26.10
2018-06-18T08:01:53.732Z,26.00
2018-06-18T08:04:25.384Z,26.10
2018-06-18T08:06:56.061Z,26.40
2018-06-18T08:09:26.694Z,26.60
2018-06-18T08:11:57.477Z,27.00
2018-06-18T08:14:28.039Z,26.90
2018-06-18T08:16:58.528Z,27.00
2018-06-18T08:19:29.151Z,27.40
2018-06-18T08:21:59.652Z,27.40
2018-06-18T08:24:30.276Z,27.30
2018-06-18T08:27:00.896Z,26.60
2018-06-18T08:29:31.483Z,26.80
2018-06-18T08:32:02.244Z,27.00
2018-06-18T08:34:32.592Z,27.40
2018-06-18T08:37:03.280Z,27.40
2018-06-18T08:39:34.307Z,27.70
2018-06-18T08:42:05.860Z,27.90
2018-06-18T08:44:36.279Z,27.70
2018-06-18T08:47:07.318Z,27.90
2018-06-18T08:49:43.372Z,28.20
2018-06-18T08:52:18.960Z,28.20
2018-06-18T08:54:54.440Z,28.10
2018-06-18T08:57:29.987Z,28.50
2018-06-18T09:00:05.759Z,28.10
2018-06-18T09:05:13.482Z,28.00
2018-06-18T09:07:48.893Z,27.80
2018-06-18T09:10:19.455Z,27.80
2018-06-18T09:12:59.398Z,27.50
2018-06-18T09:15:31.631Z,27.30
2018-06-18T09:18:10.942Z,27.50
2018-06-18T09:20:44.070Z,28.20
2018-06-18T09:23:14.721Z,28.10
2018-06-18T09:25:51.413Z,27.70
2018-06-18T09:28:22.552Z,27.40
2018-06-18T09:30:54.842Z,27.00
2018-06-18T09:33:27.176Z,26.90
2018-06-18T09:36:00.181Z,27.10
2018-06-18T09:38:30.745Z,27.40
2018-06-18T09:41:01.307Z,27.70
2018-06-18T09:43:32.057Z,28.10
2018-06-18T09:46:03.188Z,28.50
2018-06-18T09:48:38.548Z,28.70
2018-06-18T09:51:13.935Z,28.70
2018-06-18T09:53:49.402Z,29.00
2018-06-18T09:56:25.151Z,29.20
2018-06-18T09:59:00.825Z,29.40
2018-06-18T10:04:03.120Z,29.60
2018-06-18T10:06:35.895Z,29.60
2018-06-18T10:09:09.875Z,29.70
2018-06-18T10:11:40.522Z,29.80
2018-06-18T10:14:12.252Z,29.60
2018-06-18T10:16:42.649Z,29.60
2018-06-18T10:19:13.844Z,29.30
2018-06-18T10:21:44.467Z,29.20
2018-06-18T10:24:14.864Z,28.70
2018-06-18T10:26:45.655Z,28.40
2018-06-18T10:29:16.264Z,28.10
2018-06-18T10:31:46.685Z,28.00
2018-06-18T10:34:22.141Z,28.00
2018-06-18T10:36:57.829Z,27.90
2018-06-18T10:39:33.468Z,27.80
2018-06-18T10:42:08.987Z,27.70
2018-06-18T10:44:39.848Z,27.60
2018-06-18T10:47:10.440Z,27.50
2018-06-18T10:49:41.101Z,27.50
2018-06-18T10:52:11.501Z,27.30
2018-06-18T10:54:41.969Z,27.30
2018-06-18T10:57:12.526Z,27.30
2018-06-18T10:59:43.118Z,27.30
2018-06-18T11:02:13.756Z,27.20
2018-06-18T11:05:04.659Z,26.80
2018-06-18T11:07:35.225Z,26.70
2018-06-18T11:10:05.769Z,26.70
2018-06-18T11:12:36.456Z,26.70
2018-06-18T11:15:07.208Z,26.60
2018-06-18T11:17:42.861Z,26.50
2018-06-18T11:20:18.519Z,26.50
2018-06-18T11:22:54.134Z,26.50
2018-06-18T11:25:29.875Z,26.50
2018-06-18T11:28:00.614Z,26.50
2018-06-18T11:30:31.561Z,26.70
2018-06-18T11:33:02.193Z,26.80
2018-06-18T11:35:32.721Z,26.90
2018-06-18T11:38:03.380Z,27.10
2018-06-18T11:40:33.867Z,27.50
2018-06-18T11:43:04.686Z,27.90
2018-06-18T11:45:35.486Z,28.10
2018-06-18T11:48:15.957Z,28.40
2018-06-18T11:50:47.003Z,28.60
2018-06-18T11:53:18.263Z,28.80
2018-06-18T11:55:49.073Z,29.00
2018-06-18T11:58:24.841Z,29.30
2018-06-18T12:01:00.680Z,29.40
2018-06-18T12:03:36.684Z,29.50
2018-06-18T12:06:12.210Z,29.60
2018-06-18T12:08:47.641Z,29.40
2018-06-18T12:11:18.173Z,29.60
2018-06-18T12:13:48.796Z,29.70
2018-06-18T12:16:19.201Z,29.90
2018-06-18T12:18:49.810Z,29.70
2018-06-18T12:21:20.193Z,29.90
2018-06-18T12:23:50.684Z,30.20
2018-06-18T12:26:21.196Z,30.40
2018-06-18T12:28:51.682Z,30.60
2018-06-18T12:31:22.175Z,30.70
2018-06-18T12:33:52.776Z,31.00
2018-06-18T12:36:23.490Z,30.60
2018-06-18T12:38:54.084Z,30.80
2018-06-18T12:41:24.643Z,30.80
2018-06-18T12:43:57.080Z,31.10
2018-06-18T12:46:32.712Z,30.80
2018-06-18T12:49:08.636Z,30.40
2018-06-18T12:51:44.100Z,30.60
2018-06-18T12:54:19.715Z,31.10
2018-06-18T12:56:55.484Z,30.90
2018-06-18T12:59:26.031Z,30.90
2018-06-18T13:02:00.717Z,31.00
2018-06-18T13:04:33.081Z,31.10
2018-06-18T13:07:03.489Z,31.00
2018-06-18T13:09:33.923Z,30.70
2018-06-18T13:12:04.576Z,30.80
2018-06-18T13:14:35.089Z,30.70
2018-06-18T13:17:05.488Z,30.60
2018-06-18T13:19:36.274Z,30.60
2018-06-18T13:22:06.705Z,30.40
2018-06-18T13:27:06.798Z,30.40
2018-06-18T13:29:37.690Z,30.50
2018-06-18T13:32:08.235Z,30.60
2018-06-18T13:34:38.712Z,30.60
2018-06-18T13:37:20.700Z,30.90
2018-06-18T13:39:56.171Z,31.00
2018-06-18T13:42:31.785Z,31.20
2018-06-18T13:45:07.646Z,31.00
2018-06-18T13:47:43.504Z,31.00
2018-06-18T13:50:14.191Z,31.10
2018-06-18T13:52:44.769Z,31.20
2018-06-18T13:55:15.189Z,31.40
2018-06-18T13:57:46.110Z,31.40
2018-06-18T14:00:16.894Z,31.10
2018-06-18T14:02:47.624Z,31.10
2018-06-18T14:05:18.324Z,30.80
2018-06-18T14:07:48.813Z,30.70
2018-06-18T14:10:19.324Z,30.60
2018-06-18T14:12:49.775Z,30.60
2018-06-18T14:15:20.311Z,30.60
2018-06-18T14:17:50.923Z,30.50
2018-06-18T14:20:26.468Z,30.70
2018-06-18T14:22:56.992Z,30.50
2018-06-18T14:25:27.484Z,30.50
2018-06-18T14:27:57.989Z,30.20
2018-06-18T14:30:33.834Z,29.90
2018-06-18T14:33:09.553Z,29.90
2018-06-18T14:35:44.998Z,29.30
2018-06-18T14:38:20.660Z,29.20
2018-06-18T14:40:51.156Z,29.30
2018-06-18T14:43:21.776Z,29.50
2018-06-18T14:45:52.772Z,29.60
2018-06-18T14:48:23.179Z,29.80
2018-06-18T14:50:53.912Z,29.80
2018-06-18T14:53:24.389Z,29.70
2018-06-18T14:56:06.591Z,29.90
2018-06-18T14:58:36.948Z,30.00
2018-06-18T15:01:07.523Z,29.80
2018-06-18T15:03:38.080Z,29.50
2018-06-18T15:06:08.758Z,29.30
2018-06-18T15:08:39.529Z,29.20
2018-06-18T15:11:09.857Z,29.00
2018-06-18T15:13:40.873Z,28.80
2018-06-18T15:16:16.377Z,28.50
2018-06-18T15:18:46.791Z,28.50
2018-06-18T15:21:17.425Z,28.20
2018-06-18T15:23:48.068Z,28.00
2018-06-18T15:28:48.267Z,27.70
2018-06-18T15:31:19.089Z,27.70
2018-06-18T15:33:49.621Z,27.50
2018-06-18T15:36:20.536Z,27.40
2018-06-18T15:38:51.051Z,27.40
2018-06-18T15:41:21.804Z,27.40
2018-06-18T15:43:52.372Z,27.20
2018-06-18T15:46:22.879Z,27.30
2018-06-18T15:48:53.818Z,27.30
2018-06-18T15:51:24.281Z,27.20
2018-06-18T15:53:54.830Z,27.30
2018-06-18T15:56:25.448Z,27.10
2018-06-18T16:01:25.912Z,26.90
2018-06-18T16:03:56.201Z,26.80
2018-06-18T16:06:26.589Z,26.80
2018-06-18T16:08:57.229Z,26.80
2018-06-18T16:11:27.787Z,26.90
2018-06-18T16:13:58.307Z,27.20
2018-06-18T16:16:28.908Z,27.60
2018-06-18T16:18:59.469Z,27.90
2018-06-18T16:21:30.416Z,28.30
2018-06-18T16:24:00.867Z,28.60
2018-06-18T16:26:31.292Z,29.00
2018-06-18T16:29:02.652Z,29.10
2018-06-18T16:31:33.627Z,29.40
2018-06-18T16:34:04.221Z,29.50
2018-06-18T16:36:34.706Z,29.20
2018-06-18T16:39:07.478Z,28.60
2018-06-18T16:41:38.103Z,28.10
2018-06-18T16:44:08.813Z,27.90
2018-06-18T16:46:39.620Z,27.60
2018-06-18T16:49:10.256Z,27.40
2018-06-18T16:51:41.604Z,27.20
2018-06-18T16:54:12.031Z,27.00
2018-06-18T16:56:42.500Z,26.80
2018-06-18T16:59:12.949Z,26.70
2018-06-18T17:01:43.666Z,26.50
2018-06-18T17:04:14.320Z,26.30
2018-06-18T17:06:45.138Z,26.10
2018-06-18T17:09:15.629Z,26.00
2018-06-18T17:11:46.029Z,25.80
2018-06-18T17:14:16.540Z,25.60
2018-06-18T17:16:46.942Z,25.50
2018-06-18T17:19:17.300Z,25.30
2018-06-18T17:21:47.775Z,25.20
2018-06-18T17:24:18.240Z,25.10
2018-06-18T17:26:48.811Z,25.00
2018-06-18T17:29:19.287Z,24.90
2018-06-18T17:31:49.866Z,24.80
2018-06-18T17:34:20.920Z,24.70
2018-06-18T17:36:51.505Z,24.70
2018-06-18T17:39:22.237Z,24.40
2018-06-18T17:41:52.721Z,24.40
2018-06-18T17:44:23.483Z,24.30
2018-06-18T17:47:02.569Z,24.30
2018-06-18T17:49:35.214Z,24.20
2018-06-18T17:52:07.269Z,24.10
2018-06-18T17:54:39.624Z,24.10
2018-06-18T17:57:11.580Z,24.00
2018-06-18T17:59:43.483Z,23.90
2018-06-18T18:02:14.441Z,23.90
2018-06-18T18:04:45.208Z,23.80
2018-06-18T18:07:17.675Z,23.80
2018-06-18T18:09:48.413Z,23.70
2018-06-18T18:12:18.993Z,23.60
2018-06-18T18:14:49.373Z,23.60
2018-06-18T18:17:20.248Z,23.60
2018-06-18T18:19:51.030Z,23.60
2018-06-18T18:22:21.936Z,23.70
2018-06-18T18:24:52.937Z,23.60
2018-06-18T18:27:23.504Z,23.60
2018-06-18T18:29:54.009Z,23.60
2018-06-18T18:32:24.524Z,23.50
2018-06-18T18:34:55.140Z,23.40
2018-06-18T18:37:27.361Z,23.50
2018-06-18T18:39:57.885Z,23.50
2018-06-18T18:42:28.640Z,23.50
2018-06-18T18:45:01.187Z,23.50
2018-06-18T18:47:32.913Z,23.50
2018-06-18T18:50:03.425Z,23.50
2018-06-18T18:52:34.135Z,23.50
2018-06-18T18:55:56.211Z,23.50
2018-06-18T18:59:39.066Z,23.60
2018-06-18T19:02:09.933Z,23.50
2018-06-18T19:04:48.519Z,23.40
2018-06-18T19:07:22.643Z,23.40
2018-06-18T19:10:02.390Z,23.40
2018-06-18T19:12:33.916Z,23.40
2018-06-18T19:15:05.137Z,23.40
2018-06-18T19:17:37.717Z,23.40
2018-06-18T19:20:13.764Z,23.30
2018-06-18T19:22:45.927Z,23.40
2018-06-18T19:25:17.176Z,23.30
2018-06-18T19:27:49.205Z,23.30
2018-06-18T19:30:21.512Z,23.30
2018-06-18T19:32:53.716Z,23.20
2018-06-18T19:35:24.140Z,23.20
2018-06-18T19:37:54.963Z,23.20
2018-06-18T19:40:25.715Z,23.00
2018-06-18T19:42:56.622Z,23.00
2018-06-18T19:45:28.604Z,23.00
2018-06-18T19:48:06.716Z,22.90
2018-06-18T19:50:37.286Z,22.90
2018-06-18T19:53:08.332Z,22.90
2018-06-18T19:55:38.973Z,22.90
2018-06-18T19:58:09.904Z,22.80
2018-06-18T20:00:46.233Z,22.80
2018-06-18T20:03:18.289Z,22.80
2018-06-18T20:05:49.917Z,22.80
2018-06-18T20:08:26.412Z,22.80
2018-06-18T20:10:57.706Z,22.70
2018-06-18T20:13:28.901Z,22.70
2018-06-18T20:16:00.661Z,22.70
2018-06-18T20:21:01.445Z,22.60
2018-06-18T20:23:32.696Z,22.60
2018-06-18T20:26:09.031Z,22.70
2018-06-18T20:28:39.992Z,22.70
2018-06-18T20:31:16.043Z,22.60
2018-06-18T20:33:49.338Z,22.60
2018-06-18T20:36:21.576Z,22.60
2018-06-18T20:38:52.602Z,22.60
2018-06-18T20:41:23.501Z,22.50
2018-06-18T20:44:05.076Z,22.40
2018-06-18T20:46:36.910Z,22.40
2018-06-18T20:49:16.664Z,22.30
2018-06-18T20:51:49.033Z,22.30
2018-06-18T20:54:20.727Z,22.30
2018-06-18T20:56:51.440Z,22.30
2018-06-18T20:59:22.462Z,22.30
2018-06-18T21:01:53.096Z,22.30
2018-06-18T21:04:24.751Z,22.30
2018-06-18T21:06:55.655Z,22.30
2018-06-18T21:09:26.237Z,22.20
2018-06-18T21:11:57.163Z,22.20
2018-06-18T21:14:27.822Z,22.10
2018-06-18T21:17:01.353Z,22.10
2018-06-18T21:19:32.024Z,22.10
2018-06-18T21:22:02.761Z,22.10
2018-06-18T21:24:33.289Z,22.00
2018-06-18T21:27:03.960Z,22.00
2018-06-18T21:29:35.005Z,21.90
2018-06-18T21:32:05.541Z,21.90
2018-06-18T21:34:36.222Z,21.90
2018-06-18T21:37:06.859Z,21.80
2018-06-18T21:39:37.633Z,21.80
2018-06-18T21:42:08.082Z,21.80
2018-06-18T21:44:48.028Z,21.80
2018-06-18T21:47:18.431Z,21.80
2018-06-18T21:49:49.091Z,21.70
2018-06-18T21:52:20.128Z,21.70
2018-06-18T21:54:56.220Z,21.70
2018-06-18T21:57:29.587Z,21.60
2018-06-18T22:00:02.189Z,21.70
2018-06-18T22:02:34.112Z,21.60
2018-06-18T22:07:36.897Z,21.60
2018-06-18T22:10:10.395Z,21.60
2018-06-18T22:12:43.583Z,21.60
2018-06-18T22:15:15.636Z,21.60
2018-06-18T22:17:47.091Z,21.60
2018-06-18T22:20:18.566Z,21.50
2018-06-18T22:22:50.125Z,21.50
2018-06-18T22:38:27.585Z,21.50
2018-06-18T22:40:59.671Z,21.20
2018-06-18T22:43:31.818Z,21.10
2018-06-18T22:46:02.332Z,21.20
2018-06-18T22:48:32.737Z,21.10
2018-06-18T22:51:03.090Z,21.00
2018-06-18T22:53:33.633Z,21.00
2018-06-18T22:56:04.183Z,21.00
2018-06-18T22:58:34.671Z,21.00
2018-06-18T23:01:05.376Z,21.00
2018-06-18T23:06:42.339Z,21.00
2018-06-18T23:09:13.129Z,21.10
2018-06-18T23:11:43.845Z,21.00
2018-06-18T23:14:19.464Z,21.00
2018-06-18T23:16:50.553Z,21.00
2018-06-18T23:19:21.230Z,20.90
2018-06-18T23:21:51.867Z,20.90
2018-06-18T23:24:22.363Z,20.90
2018-06-18T23:26:52.889Z,20.80
2018-06-18T23:29:23.786Z,20.70
2018-06-18T23:34:24.500Z,20.60
2018-06-18T23:36:54.997Z,20.60
2018-06-18T23:39:25.521Z,20.60
2018-06-18T23:41:57.718Z,20.50
2018-06-18T23:44:28.422Z,20.40
2018-06-18T23:46:59.296Z,20.40
2018-06-18T23:49:30.112Z,20.40
2018-06-18T23:52:00.752Z,20.30
2018-06-18T23:54:31.854Z,20.30
2018-06-18T23:57:02.503Z,20.30
2018-06-18T23:59:33.133Z,20.20
